Time;durP1;ratioP1;P1;durP2;ratioP2;P2;SDS_P1;SDS_P2;PMS_P1;PMS_P2;Temp;Humidity;BMP_temperature;BMP_pressure;BME280_temperature;BME280_humidity;BME280_pressure;Samples;Min_cycle;Max_cycle;Signal;HPM_P1;HPM_P2
2022/10/28 00:01:34;;;;;;;7.47;3.70;;;16.20;99.90;;;;;;5054116;28;20494;-71
2022/10/28 00:04:00;;;;;;;10.97;4.70;;;16.20;99.90;;;;;;5031483;28;20465;-71
2022/10/28 00:06:31;;;;;;;13.03;4.80;;;16.10;99.90;;;;;;5053533;28;20495;-71
2022/10/28 00:08:58;;;;;;;9.20;5.30;;;16.10;99.90;;;;;;5051351;28;20455;-70
2022/10/28 00:11:29;;;;;;;9.30;4.40;;;16.20;99.90;;;;;;5053530;28;20427;-70
2022/10/28 00:13:57;;;;;;;14.70;4.87;;;16.10;99.90;;;;;;5053786;28;20474;-71
2022/10/28 00:16:25;;;;;;;8.20;4.30;;;16.10;99.90;;;;;;5053670;28;20844;-71
2022/10/28 00:18:52;;;;;;;8.83;4.60;;;16.10;99.90;;;;;;5035010;28;20490;-71
2022/10/28 00:21:23;;;;;;;9.80;4.80;;;16.20;99.90;;;;;;5053738;28;20907;-71
2022/10/28 00:23:49;;;;;;;8.13;4.50;;;16.10;99.90;;;;;;5053439;28;20391;-70
2022/10/28 00:26:18;;;;;;;12.40;4.20;;;16.10;99.90;;;;;;5053753;28;20494;-70
2022/10/28 00:28:48;;;;;;;7.37;4.53;;;16.10;99.90;;;;;;5053926;28;20662;-71
2022/10/28 00:31:17;;;;;;;5.70;3.83;;;16.10;99.90;;;;;;5054181;28;20393;-70
2022/10/28 00:33:43;;;;;;;4.53;4.03;;;16.20;99.90;;;;;;5053094;28;20420;-71
2022/10/28 00:36:19;;;;;;;12.40;4.50;;;16.20;99.90;;;;;;5053758;28;20412;-71
2022/10/28 00:38:46;;;;;;;7.10;4.47;;;16.20;99.90;;;;;;5053868;28;20428;-70
2022/10/28 00:41:23;;;;;;;10.83;4.77;;;16.10;99.90;;;;;;5053238;28;20410;-71
2022/10/28 00:43:53;;;;;;;11.37;4.87;;;15.90;99.90;;;;;;5053385;28;20450;-71
2022/10/28 00:46:37;;;;;;;8.00;4.60;;;15.90;99.90;;;;;;5053623;28;20734;-71
2022/10/28 00:49:11;;;;;;;12.90;3.90;;;16.10;99.90;;;;;;5052917;28;20836;-71
2022/10/28 00:51:37;;;;;;;9.60;4.67;;;16.10;99.90;;;;;;5040940;28;20903;-71
2022/10/28 00:54:04;;;;;;;6.20;4.70;;;16.20;99.90;;;;;;5053254;28;20491;-71
2022/10/28 00:56:35;;;;;;;7.00;4.23;;;16.20;99.90;;;;;;5052974;28;20466;-71
2022/10/28 00:59:05;;;;;;;6.17;3.70;;;16.20;99.90;;;;;;5053065;28;20399;-71
2022/10/28 01:01:31;;;;;;;8.33;4.27;;;16.20;99.90;;;;;;5052987;28;20416;-71
2022/10/28 01:03:59;;;;;;;5.93;4.27;;;16.20;99.90;;;;;;5051520;28;20509;-72
2022/10/28 01:06:26;;;;;;;9.03;4.40;;;16.10;99.90;;;;;;5052735;28;20416;-71
2022/10/28 01:08:52;;;;;;;9.00;4.90;;;16.20;99.90;;;;;;5052701;28;20476;-70
2022/10/28 01:11:47;;;;;;;5.80;4.07;;;16.30;99.90;;;;;;5052677;28;20439;-70
2022/10/28 01:14:22;;;;;;;8.23;4.60;;;16.30;99.90;;;;;;5052959;28;20157;-70
2022/10/28 01:17:03;;;;;;;9.43;5.00;;;16.20;99.90;;;;;;5053012;28;20435;-71
2022/10/28 01:19:37;;;;;;;9.20;4.60;;;16.00;99.90;;;;;;5044800;28;20434;-73
2022/10/28 01:22:14;;;;;;;7.40;4.87;;;15.90;99.90;;;;;;5042658;28;20416;-73
2022/10/28 01:25:02;;;;;;;10.93;5.77;;;16.00;99.90;;;;;;5052792;28;20390;-71
2022/10/28 01:27:42;;;;;;;7.10;4.13;;;16.00;99.90;;;;;;5052382;28;20802;-71
2022/10/28 01:30:24;;;;;;;8.17;4.33;;;16.00;99.90;;;;;;5052340;28;20464;-71
2022/10/28 01:33:19;;;;;;;7.50;4.13;;;15.90;99.90;;;;;;5051713;28;20431;-71
2022/10/28 01:36:29;;;;;;;7.40;4.20;;;16.00;99.90;;;;;;5052121;28;20388;-72
2022/10/28 01:39:05;;;;;;;7.30;4.00;;;16.10;99.90;;;;;;5024419;28;20418;-72
2022/10/28 01:41:45;;;;;;;11.93;4.73;;;16.10;99.90;;;;;;5052505;28;20392;-71
2022/10/28 01:44:29;;;;;;;8.00;4.80;;;15.80;99.90;;;;;;5034365;28;20413;-71
2022/10/28 01:47:01;;;;;;;7.10;4.23;;;15.80;99.90;;;;;;5052414;28;20428;-71
2022/10/28 01:50:04;;;;;;;9.00;4.80;;;15.80;99.90;;;;;;5055733;28;20439;-71
2022/10/28 01:52:31;;;;;;;7.13;4.57;;;15.80;99.90;;;;;;5025401;28;20568;-71
2022/10/28 01:55:12;;;;;;;10.60;5.23;;;15.70;99.90;;;;;;5056348;28;20482;-71
2022/10/28 01:57:40;;;;;;;8.83;4.70;;;15.60;99.90;;;;;;5056140;28;20509;-71
2022/10/28 02:00:07;;;;;;;9.60;4.17;;;15.70;99.90;;;;;;5038105;28;20419;-71
2022/10/28 02:02:35;;;;;;;8.67;4.93;;;15.70;99.90;;;;;;5055709;28;20410;-72
2022/10/28 02:05:25;;;;;;;7.77;4.53;;;15.70;99.90;;;;;;5054598;28;20807;-72
2022/10/28 02:07:56;;;;;;;7.70;4.97;;;15.80;99.90;;;;;;5055380;28;20947;-72
2022/10/28 02:10:32;;;;;;;7.37;4.43;;;15.90;99.90;;;;;;5055974;28;20467;-72
2022/10/28 02:13:02;;;;;;;10.17;5.40;;;15.80;99.90;;;;;;5055941;28;20438;-71
2022/10/28 02:15:51;;;;;;;7.90;4.40;;;15.70;99.90;;;;;;5055927;28;20404;-71
2022/10/28 02:18:20;;;;;;;5.43;4.20;;;15.70;99.90;;;;;;5037652;28;20454;-71
2022/10/28 02:21:08;;;;;;;10.27;4.80;;;15.70;99.90;;;;;;5055237;28;20478;-72
2022/10/28 02:23:47;;;;;;;8.33;5.17;;;15.70;99.90;;;;;;5024804;28;20416;-72
2022/10/28 02:26:34;;;;;;;7.80;4.40;;;15.70;99.90;;;;;;5056019;28;20845;-72
2022/10/28 02:29:07;;;;;;;10.47;4.97;;;15.70;99.90;;;;;;5055727;28;20463;-71
2022/10/28 02:31:38;;;;;;;11.23;4.50;;;15.50;99.90;;;;;;5055869;28;20893;-71
2022/10/28 02:34:16;;;;;;;12.53;4.73;;;15.40;99.90;;;;;;5054770;28;20443;-72
2022/10/28 02:36:47;;;;;;;9.27;4.40;;;15.50;99.90;;;;;;5055508;28;20512;-71
2022/10/28 02:39:15;;;;;;;8.10;4.90;;;15.60;99.90;;;;;;5054536;28;20400;-71
2022/10/28 02:41:40;;;;;;;9.53;4.40;;;15.50;99.90;;;;;;5054973;28;20401;-71
2022/10/28 02:44:10;;;;;;;12.30;5.07;;;15.50;99.90;;;;;;5055130;28;20997;-71
2022/10/28 02:46:38;;;;;;;10.73;4.80;;;15.50;99.90;;;;;;5055389;28;20606;-71
2022/10/28 02:49:07;;;;;;;13.13;5.80;;;15.40;99.90;;;;;;5054776;28;20444;-72
2022/10/28 02:51:41;;;;;;;7.70;4.53;;;15.40;99.90;;;;;;5055110;28;20872;-71
2022/10/28 02:54:25;;;;;;;8.00;4.60;;;15.40;99.90;;;;;;5055074;28;20394;-71
2022/10/28 02:57:02;;;;;;;11.43;5.10;;;15.40;99.90;;;;;;5036990;28;20436;-70
2022/10/28 02:59:28;;;;;;;15.60;5.50;;;15.40;99.90;;;;;;5055619;28;20869;-71
2022/10/28 03:01:55;;;;;;;21.17;5.60;;;15.30;99.90;;;;;;5054913;28;20728;-71
2022/10/28 03:04:20;;;;;;;6.83;4.53;;;15.30;99.90;;;;;;5053482;28;20790;-71
2022/10/28 03:06:46;;;;;;;10.90;5.60;;;15.20;99.90;;;;;;5054942;28;20433;-71
2022/10/28 03:09:11;;;;;;;12.83;5.67;;;15.20;99.90;;;;;;5054588;28;20192;-71
2022/10/28 03:11:37;;;;;;;9.73;5.30;;;15.20;99.90;;;;;;5054863;28;20710;-70
2022/10/28 03:14:02;;;;;;;7.40;4.30;;;15.30;99.90;;;;;;5054986;28;20181;-70
2022/10/28 03:16:28;;;;;;;8.97;4.90;;;15.30;99.90;;;;;;5054534;28;20174;-71
2022/10/28 03:18:54;;;;;;;4.90;4.37;;;15.30;99.90;;;;;;5054003;28;20189;-74
2022/10/28 03:21:19;;;;;;;9.73;4.67;;;15.30;99.90;;;;;;5054945;28;20181;-71
2022/10/28 03:23:45;;;;;;;8.27;4.30;;;15.50;99.90;;;;;;5054536;28;20642;-71
2022/10/28 03:26:11;;;;;;;5.37;4.07;;;15.50;99.90;;;;;;5054607;28;20172;-71
2022/10/28 03:28:36;;;;;;;10.00;4.87;;;15.50;99.90;;;;;;5054243;28;20625;-71
2022/10/28 03:31:02;;;;;;;10.77;5.03;;;15.40;99.90;;;;;;5054563;28;20252;-71
2022/10/28 03:33:27;;;;;;;8.23;4.60;;;15.50;99.90;;;;;;5054260;28;20629;-72
2022/10/28 03:35:53;;;;;;;8.03;5.60;;;15.60;99.90;;;;;;5054130;28;20175;-71
2022/10/28 03:38:19;;;;;;;8.07;4.10;;;15.70;99.90;;;;;;5054417;28;20230;-72
2022/10/28 03:40:47;;;;;;;8.43;4.17;;;15.80;99.90;;;;;;5054536;28;20177;-71
2022/10/28 03:43:13;;;;;;;7.50;5.23;;;15.80;99.90;;;;;;5036580;28;20704;-72
2022/10/28 03:45:39;;;;;;;10.80;5.33;;;15.70;99.90;;;;;;5054222;28;20439;-72
2022/10/28 03:48:04;;;;;;;11.40;5.80;;;15.80;99.90;;;;;;5054472;28;20196;-72
2022/10/28 03:50:30;;;;;;;11.30;5.77;;;15.80;99.90;;;;;;5053540;28;20168;-72
2022/10/28 03:52:55;;;;;;;12.67;8.53;;;15.90;99.90;;;;;;5054056;28;20171;-72
2022/10/28 03:55:22;;;;;;;12.87;9.60;;;15.90;99.90;;;;;;5053955;28;20269;-71
2022/10/28 03:57:48;;;;;;;15.07;10.60;;;15.90;99.90;;;;;;5053909;28;20698;-71
2022/10/28 04:00:14;;;;;;;13.63;11.67;;;15.90;99.90;;;;;;5054134;28;20494;-71
2022/10/28 04:02:40;;;;;;;11.70;7.03;;;15.90;99.90;;;;;;5053763;28;20169;-71
2022/10/28 04:05:06;;;;;;;10.60;7.97;;;15.70;99.90;;;;;;5052175;28;21004;-71
2022/10/28 04:07:31;;;;;;;11.37;7.30;;;15.80;99.90;;;;;;5053670;28;20702;-71
2022/10/28 04:09:57;;;;;;;10.43;5.60;;;15.80;99.90;;;;;;5053139;28;20195;-71
2022/10/28 04:12:22;;;;;;;16.50;6.20;;;15.80;99.90;;;;;;5052857;28;20165;-72
2022/10/28 04:14:48;;;;;;;12.47;6.60;;;15.70;99.90;;;;;;5042642;28;20187;-71
2022/10/28 04:17:13;;;;;;;12.63;5.50;;;15.70;99.90;;;;;;5052882;28;20224;-71
2022/10/28 04:19:39;;;;;;;9.80;5.77;;;15.70;99.90;;;;;;5053338;28;20650;-71
2022/10/28 04:22:05;;;;;;;11.70;6.90;;;15.80;99.90;;;;;;5053712;28;20272;-71
2022/10/28 04:24:30;;;;;;;9.77;5.10;;;15.90;99.90;;;;;;5053487;28;20177;-71
2022/10/28 04:26:56;;;;;;;9.33;5.83;;;16.00;99.90;;;;;;5053336;28;20196;-71
2022/10/28 04:29:21;;;;;;;11.07;6.07;;;16.10;99.90;;;;;;5053483;28;20189;-71
2022/10/28 04:31:47;;;;;;;10.33;6.33;;;16.00;99.90;;;;;;5053667;28;20198;-71
2022/10/28 04:34:12;;;;;;;20.00;7.67;;;16.00;99.90;;;;;;5052842;28;20649;-72
2022/10/28 04:36:38;;;;;;;10.97;7.93;;;16.00;99.90;;;;;;5053440;28;20623;-71
2022/10/28 04:39:03;;;;;;;7.53;5.70;;;16.10;99.90;;;;;;5053254;28;20186;-71
2022/10/28 04:41:29;;;;;;;10.20;6.60;;;16.10;99.90;;;;;;5053282;28;20174;-71
2022/10/28 04:43:55;;;;;;;10.63;6.73;;;16.10;99.90;;;;;;5052912;28;20176;-71
2022/10/28 04:46:21;;;;;;;15.17;6.27;;;16.10;99.90;;;;;;5052845;28;20248;-71
2022/10/28 04:48:47;;;;;;;8.67;6.00;;;16.20;99.90;;;;;;5053130;28;20196;-71
2022/10/28 04:51:12;;;;;;;7.23;5.57;;;16.20;99.90;;;;;;5052503;28;20766;-71
2022/10/28 04:53:38;;;;;;;10.63;6.30;;;16.20;99.90;;;;;;5053454;28;20455;-71
2022/10/28 04:56:04;;;;;;;10.90;6.30;;;16.30;99.90;;;;;;5053225;28;20174;-71
2022/10/28 04:58:29;;;;;;;13.60;6.70;;;16.30;99.90;;;;;;5053010;28;20671;-71
2022/10/28 05:00:55;;;;;;;9.27;6.17;;;16.20;99.90;;;;;;5052952;28;20170;-71
2022/10/28 05:03:20;;;;;;;7.90;5.43;;;16.20;99.90;;;;;;5052725;28;20169;-72
2022/10/28 05:05:47;;;;;;;10.77;5.73;;;16.30;99.90;;;;;;5051191;28;20177;-71
2022/10/28 05:08:13;;;;;;;9.20;6.13;;;16.30;99.90;;;;;;5052495;28;20250;-71
2022/10/28 05:10:39;;;;;;;8.83;6.23;;;16.30;99.90;;;;;;5052537;28;20487;-71
2022/10/28 05:13:04;;;;;;;8.00;6.40;;;16.30;99.90;;;;;;5052544;28;20539;-71
2022/10/28 05:15:30;;;;;;;12.60;6.27;;;16.30;99.90;;;;;;5052546;28;20616;-71
2022/10/28 05:17:56;;;;;;;7.67;6.23;;;16.30;99.90;;;;;;5052263;28;20752;-71
2022/10/28 05:20:21;;;;;;;12.40;6.27;;;16.40;99.90;;;;;;5052024;28;20166;-71
2022/10/28 05:22:49;;;;;;;10.30;6.23;;;16.40;99.90;;;;;;5051675;28;20174;-71
2022/10/28 05:25:15;;;;;;;8.70;5.57;;;16.40;99.90;;;;;;5052377;28;20269;-72
2022/10/28 05:27:41;;;;;;;12.77;6.67;;;16.30;99.90;;;;;;5052408;28;20436;-71
2022/10/28 05:30:07;;;;;;;13.27;9.80;;;16.20;99.90;;;;;;5052217;28;20443;-71
2022/10/28 05:32:33;;;;;;;12.87;7.63;;;16.10;99.90;;;;;;5052621;28;20586;-71
2022/10/28 05:34:59;;;;;;;10.53;6.87;;;16.10;99.90;;;;;;5051951;28;20408;-72
2022/10/28 05:37:24;;;;;;;8.90;7.03;;;16.10;99.90;;;;;;5052597;28;20604;-71
2022/10/28 05:39:50;;;;;;;14.10;6.97;;;16.00;99.90;;;;;;5050947;28;20564;-72
2022/10/28 05:42:15;;;;;;;10.17;6.77;;;15.90;99.90;;;;;;5052338;28;20602;-71
2022/10/28 05:44:41;;;;;;;7.13;5.60;;;15.80;99.90;;;;;;5052646;28;20169;-71
2022/10/28 05:47:07;;;;;;;9.77;5.50;;;15.80;99.90;;;;;;5052155;28;20204;-71
2022/10/28 05:49:32;;;;;;;8.90;6.00;;;15.90;99.90;;;;;;5052009;28;20194;-71
2022/10/28 05:51:58;;;;;;;8.80;6.50;;;15.70;99.90;;;;;;5052137;28;20249;-71
2022/10/28 05:54:23;;;;;;;10.30;6.37;;;15.70;99.90;;;;;;5051685;28;20170;-72
2022/10/28 05:56:49;;;;;;;7.93;6.40;;;15.80;99.90;;;;;;5051957;28;20197;-71
2022/10/28 05:59:14;;;;;;;8.60;6.20;;;15.80;99.90;;;;;;5052122;28;20694;-71
2022/10/28 06:01:40;;;;;;;10.87;6.10;;;15.80;99.90;;;;;;5052292;28;20170;-71
2022/10/28 06:04:05;;;;;;;9.67;5.73;;;15.80;99.90;;;;;;5052262;28;20178;-71
2022/10/28 06:06:31;;;;;;;6.93;5.40;;;15.80;99.90;;;;;;5050506;28;20181;-71
2022/10/28 06:08:56;;;;;;;9.67;5.23;;;15.90;99.90;;;;;;5052176;28;20197;-71
2022/10/28 06:11:22;;;;;;;7.67;5.20;;;15.90;99.90;;;;;;5051627;28;20168;-71
2022/10/28 06:13:47;;;;;;;10.73;5.20;;;15.90;99.90;;;;;;5052038;28;20174;-71
2022/10/28 06:16:13;;;;;;;10.43;5.53;;;15.80;99.90;;;;;;5052246;28;20201;-71
2022/10/28 06:18:38;;;;;;;9.23;5.77;;;15.90;99.90;;;;;;5051114;28;20216;-71
2022/10/28 06:21:04;;;;;;;12.93;5.97;;;15.90;99.90;;;;;;5052350;28;20181;-71
2022/10/28 06:23:30;;;;;;;9.87;5.00;;;16.00;99.90;;;;;;5052151;28;20248;-71
2022/10/28 06:25:57;;;;;;;7.70;4.97;;;16.00;99.90;;;;;;5051041;28;20658;-71
2022/10/28 06:28:23;;;;;;;8.17;6.47;;;15.90;99.90;;;;;;5051694;28;20200;-71
2022/10/28 06:30:48;;;;;;;7.90;5.20;;;15.90;99.90;;;;;;5051752;28;20487;-71
2022/10/28 06:33:14;;;;;;;8.77;5.77;;;15.80;99.90;;;;;;5052998;28;20229;-71
2022/10/28 06:35:39;;;;;;;8.43;4.90;;;15.90;99.90;;;;;;5055263;28;20170;-71
2022/10/28 06:38:05;;;;;;;5.37;4.83;;;15.90;99.90;;;;;;5055129;28;20228;-71
2022/10/28 06:40:31;;;;;;;12.97;6.07;;;16.00;99.90;;;;;;5054805;28;20206;-71
2022/10/28 06:43:01;;;;;;;9.00;6.37;;;16.10;99.90;;;;;;5055696;28;20277;-71
2022/10/28 06:45:33;;;;;;;9.63;4.97;;;16.20;99.90;;;;;;5037607;28;20581;-71
2022/10/28 06:48:04;;;;;;;5.90;4.77;;;16.10;99.90;;;;;;5055195;28;20422;-71
2022/10/28 06:50:30;;;;;;;6.83;4.77;;;16.20;99.90;;;;;;5054970;28;20401;-72
2022/10/28 06:52:57;;;;;;;10.00;4.80;;;16.30;99.90;;;;;;5054983;28;20411;-71
2022/10/28 06:55:23;;;;;;;7.33;4.67;;;16.30;99.90;;;;;;5055022;28;20239;-71
2022/10/28 06:57:49;;;;;;;9.07;4.40;;;16.30;99.90;;;;;;5055089;28;20419;-71
2022/10/28 07:00:15;;;;;;;11.60;4.83;;;16.40;99.90;;;;;;5054845;28;20495;-71
2022/10/28 07:02:40;;;;;;;7.33;5.50;;;16.50;99.90;;;;;;5055112;28;20173;-71
2022/10/28 07:05:06;;;;;;;10.17;4.87;;;16.60;99.90;;;;;;5053714;28;20440;-71
2022/10/28 07:07:32;;;;;;;11.87;5.67;;;16.60;99.90;;;;;;5042547;28;20198;-71
2022/10/28 07:09:58;;;;;;;7.53;5.07;;;16.70;99.90;;;;;;5054347;28;20947;-71
2022/10/28 07:12:24;;;;;;;8.43;4.87;;;16.70;99.90;;;;;;5054633;28;20161;-71
2022/10/28 07:14:49;;;;;;;6.93;5.43;;;16.80;99.90;;;;;;5054860;28;20663;-71
2022/10/28 07:17:15;;;;;;;7.30;5.10;;;17.00;99.90;;;;;;5054340;28;20194;-71
2022/10/28 07:19:40;;;;;;;10.47;5.43;;;17.10;99.90;;;;;;5054331;28;20212;-72
2022/10/28 07:22:06;;;;;;;7.50;4.20;;;17.10;99.90;;;;;;5054224;28;20241;-71
2022/10/28 07:24:31;;;;;;;8.73;5.67;;;17.30;99.90;;;;;;5054442;28;20641;-71
2022/10/28 07:26:57;;;;;;;6.70;5.83;;;17.00;99.90;;;;;;5054285;28;20213;-71
2022/10/28 07:29:22;;;;;;;17.93;10.70;;;17.20;99.90;;;;;;5054248;28;20194;-71
2022/10/28 07:31:48;;;;;;;19.87;9.87;;;17.20;99.90;;;;;;5054391;28;20210;-71
2022/10/28 07:34:14;;;;;;;19.57;9.80;;;17.30;99.90;;;;;;5054599;28;20166;-72
2022/10/28 07:36:39;;;;;;;17.43;9.40;;;17.40;99.90;;;;;;5035486;28;20203;-71
2022/10/28 07:39:05;;;;;;;19.23;9.27;;;17.40;99.90;;;;;;5054350;28;20171;-71
2022/10/28 07:41:30;;;;;;;15.13;8.67;;;17.60;99.90;;;;;;5054103;28;20174;-71
2022/10/28 07:43:56;;;;;;;13.30;8.07;;;17.70;99.90;;;;;;5054270;28;20174;-71
2022/10/28 07:46:22;;;;;;;12.63;6.97;;;17.80;99.90;;;;;;5052891;28;20168;-71
2022/10/28 07:48:47;;;;;;;12.53;7.90;;;18.00;99.90;;;;;;5054243;28;20962;-71
2022/10/28 07:51:15;;;;;;;14.70;6.80;;;18.00;99.90;;;;;;5053630;28;20706;-72
2022/10/28 07:53:40;;;;;;;18.83;6.33;;;17.90;99.90;;;;;;5054148;28;20575;-71
2022/10/28 07:56:09;;;;;;;12.70;6.37;;;18.00;99.90;;;;;;5053796;28;20440;-71
2022/10/28 07:58:35;;;;;;;11.20;5.30;;;18.00;99.90;;;;;;5053920;28;20197;-71
2022/10/28 08:01:06;;;;;;;7.80;5.13;;;18.00;99.90;;;;;;5053604;28;20496;-71
2022/10/28 08:03:32;;;;;;;12.40;5.43;;;18.10;99.90;;;;;;5054485;28;20425;-71
2022/10/28 08:06:03;;;;;;;9.20;5.27;;;18.30;99.90;;;;;;5052114;28;20413;-71
2022/10/28 08:08:29;;;;;;;8.53;5.10;;;18.40;99.90;;;;;;5053470;28;20483;-72
2022/10/28 08:10:54;;;;;;;8.33;4.87;;;18.50;99.90;;;;;;5053484;28;20404;-71
2022/10/28 08:13:20;;;;;;;13.47;5.63;;;18.50;99.90;;;;;;5054174;28;20245;-71
2022/10/28 08:15:55;;;;;;;8.03;4.50;;;18.60;99.90;;;;;;5053172;28;20171;-71
2022/10/28 08:18:21;;;;;;;8.30;4.80;;;18.70;99.90;;;;;;5052931;28;20224;-71
2022/10/28 08:20:48;;;;;;;8.13;4.17;;;18.70;99.90;;;;;;5053432;28;20465;-72
2022/10/28 08:23:14;;;;;;;7.27;4.67;;;18.80;99.90;;;;;;5053601;28;20472;-72
2022/10/28 08:25:50;;;;;;;8.90;4.87;;;18.80;99.90;;;;;;5053825;28;20688;-72
2022/10/28 08:28:16;;;;;;;11.80;5.20;;;18.80;99.90;;;;;;5053349;28;20433;-72
2022/10/28 08:30:41;;;;;;;10.60;5.60;;;18.80;99.90;;;;;;5053407;28;20952;-71
2022/10/28 08:33:07;;;;;;;8.13;4.97;;;18.80;99.90;;;;;;5053436;28;20195;-71
2022/10/28 08:35:34;;;;;;;10.90;5.33;;;18.90;99.90;;;;;;5053063;28;20544;-71
2022/10/28 08:38:00;;;;;;;6.43;5.00;;;19.00;99.90;;;;;;5035519;28;20595;-71
2022/10/28 08:40:37;;;;;;;9.70;5.17;;;19.00;99.90;;;;;;5052136;28;20453;-72
2022/10/28 08:43:25;;;;;;;8.63;4.80;;;19.00;99.90;;;;;;5053405;28;20397;-71
2022/10/28 08:46:26;;;;;;;9.10;4.73;;;19.00;99.90;;;;;;5035286;28;20789;-71
2022/10/28 08:48:52;;;;;;;10.73;5.83;;;19.00;99.90;;;;;;4991504;28;20483;-71
2022/10/28 08:51:34;;;;;;;10.87;5.47;;;19.00;99.90;;;;;;5039948;28;20860;-72
2022/10/28 08:54:05;;;;;;;7.23;4.60;;;19.20;99.90;;;;;;5053326;28;20397;-72
2022/10/28 08:56:36;;;;;;;13.83;5.17;;;19.30;99.90;;;;;;5052986;28;20397;-72
2022/10/28 08:59:05;;;;;;;7.97;4.50;;;19.30;99.90;;;;;;5052980;28;20396;-72
2022/10/28 09:01:53;;;;;;;8.40;4.20;;;19.50;99.90;;;;;;5052922;28;20409;-71
2022/10/28 09:04:38;;;;;;;6.03;4.70;;;19.70;99.90;;;;;;5052568;28;20517;-71
2022/10/28 09:07:09;;;;;;;10.10;6.70;;;19.80;99.90;;;;;;5051481;28;20507;-71
2022/10/28 09:09:35;;;;;;;21.63;8.97;;;19.60;99.90;;;;;;5052797;28;20514;-71
2022/10/28 09:12:18;;;;;;;17.63;6.80;;;19.20;99.90;;;;;;5052934;28;20888;-71
2022/10/28 09:15:16;;;;;;;12.87;8.10;;;19.50;99.90;;;;;;5052924;28;20234;-71
2022/10/28 09:18:13;;;;;;;15.90;7.70;;;19.90;99.90;;;;;;5034391;28;20485;-71
2022/10/28 09:20:55;;;;;;;14.40;8.37;;;19.60;99.90;;;;;;5052140;28;20404;-71
2022/10/28 09:23:43;;;;;;;15.97;8.97;;;19.50;99.90;;;;;;5052685;28;20393;-71
2022/10/28 09:26:50;;;;;;;15.60;9.13;;;19.20;99.90;;;;;;5035128;28;20836;-71
2022/10/28 09:29:35;;;;;;;14.87;7.70;;;19.10;99.90;;;;;;5044365;28;20534;-71
2022/10/28 09:32:15;;;;;;;27.17;9.53;;;19.30;99.90;;;;;;5052399;28;20485;-71
2022/10/28 09:34:57;;;;;;;19.33;8.87;;;19.60;99.90;;;;;;5034331;28;20448;-70
2022/10/28 09:37:35;;;;;;;17.67;7.53;;;19.60;99.90;;;;;;5051743;28;20433;-71
2022/10/28 09:40:40;;;;;;;14.13;7.63;;;19.60;99.90;;;;;;5052313;28;20832;-71
2022/10/28 09:43:25;;;;;;;10.07;3.80;;;19.40;99.90;;;;;;4990821;28;20438;-71
2022/10/28 09:45:55;;;;;;;9.57;6.07;;;19.50;99.90;;;;;;4991010;28;20396;-71
2022/10/28 09:48:31;;;;;;;12.00;5.90;;;19.50;99.90;;;;;;5029073;28;20433;-71
2022/10/28 09:50:58;;;;;;;10.93;6.60;;;19.60;99.90;;;;;;5052192;28;20402;-71
2022/10/28 09:53:51;;;;;;;8.77;5.40;;;19.80;99.90;;;;;;5052006;28;20409;-71
2022/10/28 09:56:17;;;;;;;11.17;5.50;;;20.30;99.90;;;;;;5052298;28;20849;-71
2022/10/28 09:58:47;;;;;;;10.50;5.80;;;20.70;99.90;;;;;;5048635;28;20459;-71
2022/10/28 10:01:15;;;;;;;7.90;5.17;;;21.20;99.90;;;;;;5043013;28;20177;-71
2022/10/28 10:03:41;;;;;;;11.33;5.63;;;21.20;99.90;;;;;;5052252;28;20409;-71
2022/10/28 10:06:17;;;;;;;13.63;5.67;;;21.20;99.90;;;;;;5050657;28;20409;-71
2022/10/28 10:08:44;;;;;;;8.83;5.30;;;21.40;99.90;;;;;;5053163;28;20229;-71
2022/10/28 10:11:24;;;;;;;13.43;5.03;;;21.40;99.90;;;;;;5055755;28;20401;-71
2022/10/28 10:13:51;;;;;;;12.50;5.30;;;21.70;99.90;;;;;;5055737;28;20404;-71
2022/10/28 10:16:35;;;;;;;6.67;4.00;;;21.80;99.90;;;;;;5056339;28;20417;-71
2022/10/28 10:19:06;;;;;;;9.73;3.83;;;22.00;99.90;;;;;;5055625;28;20460;-71
2022/10/28 10:21:49;;;;;;;7.00;4.23;;;22.00;99.90;;;;;;5055234;28;20413;-72
2022/10/28 10:24:29;;;;;;;14.87;4.73;;;22.40;99.90;;;;;;5053287;28;20409;-71
2022/10/28 10:26:56;;;;;;;7.70;4.87;;;22.60;99.90;;;;;;5055265;28;20424;-71
2022/10/28 10:29:23;;;;;;;7.87;4.20;;;22.80;99.90;;;;;;5055229;28;20893;-70
2022/10/28 10:32:04;;;;;;;12.13;4.30;;;22.90;99.90;;;;;;5055073;28;20405;-70
2022/10/28 10:34:30;;;;;;;15.87;4.60;;;22.90;99.90;;;;;;5054665;28;20523;-71
2022/10/28 10:36:56;;;;;;;7.27;2.87;;;22.80;99.90;;;;;;5054522;28;20494;-70
2022/10/28 10:39:35;;;;;;;9.77;4.80;;;22.30;99.90;;;;;;5054835;28;20413;-70
2022/10/28 10:42:01;;;;;;;7.57;5.17;;;22.00;99.90;;;;;;5055403;28;20250;-70
2022/10/28 10:44:34;;;;;;;7.17;4.70;;;22.10;99.90;;;;;;5036717;28;20424;-70
2022/10/28 10:47:00;;;;;;;13.27;4.30;;;22.30;99.90;;;;;;5054822;28;20795;-69
2022/10/28 10:49:27;;;;;;;8.10;4.67;;;22.40;99.90;;;;;;5054662;28;20510;-70
2022/10/28 10:51:59;;;;;;;9.13;5.20;;;22.20;99.90;;;;;;5054022;28;20448;-70
2022/10/28 10:54:26;;;;;;;14.90;5.60;;;22.00;99.90;;;;;;5054694;28;20382;-70
2022/10/28 10:56:52;;;;;;;11.43;5.90;;;22.00;99.90;;;;;;5054595;28;20420;-71
2022/10/28 10:59:23;;;;;;;9.10;5.00;;;21.80;99.90;;;;;;5054712;28;20416;-70
2022/10/28 11:01:49;;;;;;;9.97;4.60;;;22.00;99.90;;;;;;5054757;28;20412;-71
2022/10/28 11:04:17;;;;;;;11.10;5.50;;;22.30;99.90;;;;;;5054861;28;20405;-71
2022/10/28 11:06:47;;;;;;;15.30;5.50;;;22.50;99.90;;;;;;5052511;28;20579;-74
2022/10/28 11:09:35;;;;;;;13.00;5.47;;;22.50;99.90;;;;;;5054190;28;20441;-72
2022/10/28 11:12:12;;;;;;;10.20;5.23;;;22.60;99.90;;;;;;5054866;28;20389;-73
2022/10/28 11:14:37;;;;;;;10.37;5.37;;;23.10;99.90;;;;;;5054092;28;20887;-72
2022/10/28 11:17:20;;;;;;;9.27;4.97;;;23.40;99.90;;;;;;5054290;28;20432;-73
2022/10/28 11:19:46;;;;;;;8.10;4.33;;;23.60;99.90;;;;;;5053111;28;20265;-72
2022/10/28 11:22:23;;;;;;;9.60;4.10;;;23.70;99.90;;;;;;5053559;28;20485;-73
2022/10/28 11:25:37;;;;;;;9.10;4.30;;;23.80;99.90;;;;;;5054170;28;20668;-73
2022/10/28 11:28:08;;;;;;;8.90;5.23;;;23.80;99.90;;;;;;5040479;28;20534;-72
2022/10/28 11:31:00;;;;;;;7.67;4.80;;;23.70;99.90;;;;;;5053792;28;20442;-72
2022/10/28 11:34:00;;;;;;;8.53;5.03;;;23.30;99.90;;;;;;5030483;28;20417;-73
2022/10/28 11:36:55;;;;;;;8.87;4.47;;;23.00;99.90;;;;;;5019572;28;20768;-72
2022/10/28 11:39:40;;;;;;;11.87;4.60;;;22.80;99.90;;;;;;5039585;28;20417;-73
2022/10/28 11:42:32;;;;;;;9.57;4.13;;;22.80;99.90;;;;;;5053746;28;20389;-73
2022/10/28 11:45:03;;;;;;;7.67;3.70;;;22.70;99.90;;;;;;5053713;28;20425;-73
2022/10/28 11:48:07;;;;;;;6.20;3.97;;;22.80;99.90;;;;;;5053782;28;20838;-73
2022/10/28 11:51:00;;;;;;;11.03;4.87;;;22.80;99.90;;;;;;5031905;28;20417;-73
2022/10/28 11:53:44;;;;;;;8.50;4.60;;;22.40;99.90;;;;;;5053368;28;20385;-73
2022/10/28 11:56:17;;;;;;;12.83;4.60;;;22.00;99.90;;;;;;5053654;28;20377;-73
2022/10/28 11:58:48;;;;;;;10.20;4.20;;;21.90;99.90;;;;;;5054063;28;20483;-72
2022/10/28 12:01:25;;;;;;;8.57;3.63;;;21.70;99.90;;;;;;5035417;28;20432;-72
2022/10/28 12:04:18;;;;;;;8.10;3.30;;;21.70;99.90;;;;;;5053644;28;20859;-73
2022/10/28 12:07:11;;;;;;;8.67;3.50;;;22.00;99.90;;;;;;5051622;28;20425;-73
2022/10/28 12:10:14;;;;;;;9.40;3.60;;;22.40;99.90;;;;;;5053232;28;20441;-73
2022/10/28 12:13:09;;;;;;;9.97;4.80;;;23.00;99.90;;;;;;5053017;28;20520;-73
2022/10/28 12:15:56;;;;;;;11.23;5.20;;;22.90;99.90;;;;;;5026539;28;20833;-73
2022/10/28 12:18:34;;;;;;;13.47;5.10;;;22.80;99.90;;;;;;5034787;28;20445;-72
2022/10/28 12:21:15;;;;;;;9.83;6.37;;;22.80;99.90;;;;;;5052966;28;20381;-73
2022/10/28 12:23:42;;;;;;;11.57;4.73;;;23.40;99.90;;;;;;5052789;28;20749;-74
2022/10/28 12:26:13;;;;;;;12.73;5.20;;;24.00;99.90;;;;;;5053546;28;20949;-73
2022/10/28 12:28:51;;;;;;;10.47;5.10;;;25.60;99.90;;;;;;5052751;28;20453;-73
2022/10/28 12:31:27;;;;;;;8.73;5.03;;;27.40;99.90;;;;;;5052106;28;20435;-73
2022/10/28 12:33:57;;;;;;;8.80;4.23;;;29.20;98.30;;;;;;5053407;28;20887;-74
2022/10/28 12:36:35;;;;;;;10.87;5.90;;;30.70;95.50;;;;;;5052340;28;20405;-74
2022/10/28 12:39:30;;;;;;;11.23;4.03;;;31.70;94.00;;;;;;5052739;28;20470;-74
2022/10/28 12:41:58;;;;;;;9.00;4.33;;;32.90;91.10;;;;;;5052813;28;20740;-71
2022/10/28 12:44:27;;;;;;;8.03;4.30;;;33.00;89.20;;;;;;5052660;28;20412;-71
2022/10/28 12:47:09;;;;;;;9.43;4.73;;;32.90;85.80;;;;;;5052789;28;20417;-72
2022/10/28 12:49:58;;;;;;;9.53;4.17;;;32.10;88.20;;;;;;5052745;28;20428;-72
2022/10/28 12:52:52;;;;;;;8.70;4.50;;;32.00;85.90;;;;;;5043637;28;20426;-72
2022/10/28 12:55:25;;;;;;;7.73;3.93;;;31.50;85.30;;;;;;5032586;28;20434;-73
2022/10/28 12:57:58;;;;;;;13.63;4.20;;;32.30;84.80;;;;;;5032393;28;20422;-72
2022/10/28 13:00:32;;;;;;;9.70;4.20;;;33.10;83.40;;;;;;5032506;28;20379;-73
2022/10/28 13:03:06;;;;;;;9.67;4.90;;;33.70;82.80;;;;;;5032640;28;20382;-73
2022/10/28 13:05:52;;;;;;;11.07;4.20;;;33.60;82.80;;;;;;5032662;28;20387;-73
2022/10/28 13:08:45;;;;;;;8.47;5.13;;;33.40;82.70;;;;;;5047428;28;20432;-73